Time;durP1;ratioP1;P1;durP2;ratioP2;P2;SDS_P1;SDS_P2;PMS_P1;PMS_P2;Temp;Humidity;BMP_temperature;BMP_pressure;BME280_temperature;BME280_humidity;BME280_pressure;Samples;Min_cycle;Max_cycle;Signal;HPM_P1;HPM_P2
2024/04/11 00:01:05;;;;;;;4.85;2.28;;;;;;;12.08;33.10;102612.19;5373759;26;20012;-81
2024/04/11 00:03:36;;;;;;;3.53;1.88;;;;;;;12.09;33.39;102611.19;5356327;26;20011;-80
2024/04/11 00:06:04;;;;;;;3.67;1.70;;;;;;;12.09;33.36;102612.09;5366901;26;20008;-82
2024/04/11 00:08:34;;;;;;;3.88;1.88;;;;;;;12.09;33.50;102613.94;5351420;26;20008;-82
2024/04/11 00:11:01;;;;;;;4.30;1.85;;;;;;;12.10;33.13;102611.09;5359411;26;21292;-82
2024/04/11 00:13:35;;;;;;;5.13;2.05;;;;;;;12.13;33.52;102609.16;5345806;26;20005;-82
2024/04/11 00:16:04;;;;;;;5.40;2.15;;;;;;;12.09;33.14;102613.94;5380206;26;20008;-81
2024/04/11 00:18:34;;;;;;;3.63;2.00;;;;;;;12.10;33.07;102619.34;5347778;26;20013;-82
2024/04/11 00:21:03;;;;;;;4.40;1.70;;;;;;;12.10;33.06;102621.19;5366299;26;20307;-82
2024/04/11 00:23:33;;;;;;;5.00;1.67;;;;;;;12.09;33.12;102613.94;5349894;26;20019;-82
2024/04/11 00:26:00;;;;;;;4.20;2.00;;;;;;;12.09;33.04;102613.94;5368454;26;20466;-82
2024/04/11 00:28:30;;;;;;;4.25;1.52;;;;;;;12.09;33.51;102614.81;5349953;26;20004;-81
2024/04/11 00:30:59;;;;;;;3.47;1.70;;;;;;;12.10;33.22;102616.59;5364664;26;20048;-82
2024/04/11 00:33:29;;;;;;;3.47;1.80;;;;;;;12.06;32.91;102615.03;5349031;26;20019;-81
2024/04/11 00:35:59;;;;;;;2.83;1.70;;;;;;;12.07;33.18;102618.66;5383410;26;20015;-78
2024/04/11 00:38:33;;;;;;;3.60;1.52;;;;;;;12.06;32.96;102617.75;5380143;26;20139;-81
2024/04/11 00:41:00;;;;;;;4.47;1.60;;;;;;;12.05;33.16;102615.13;5357575;26;20036;-80
2024/04/11 00:43:31;;;;;;;4.63;1.75;;;;;;;12.05;33.24;102616.00;5359630;26;20007;-81
2024/04/11 00:46:01;;;;;;;3.88;1.50;;;;;;;12.06;33.21;102616.88;5347300;26;20475;-79
2024/04/11 00:48:31;;;;;;;2.75;1.50;;;;;;;12.01;32.93;102614.44;5381149;26;20019;-81
2024/04/11 00:51:00;;;;;;;3.83;1.60;;;;;;;12.00;33.13;102631.00;5359663;26;20456;-81
2024/04/11 00:53:30;;;;;;;2.80;1.40;;;;;;;12.01;33.17;102639.16;5349561;26;20011;-80
2024/04/11 00:55:57;;;;;;;4.35;1.40;;;;;;;11.99;33.28;102638.38;5389987;26;20383;-80
2024/04/11 00:58:28;;;;;;;3.30;1.40;;;;;;;11.98;33.17;102627.47;5377972;26;20004;-78
2024/04/11 01:00:55;;;;;;;3.58;1.40;;;;;;;11.97;32.78;102614.75;5379722;26;20012;-79
2024/04/11 01:03:28;;;;;;;3.65;1.50;;;;;;;11.98;33.07;102614.66;5345832;26;20004;-81
2024/04/11 01:05:56;;;;;;;4.00;1.50;;;;;;;11.90;33.28;102619.75;5378189;26;20008;-80
2024/04/11 01:08:28;;;;;;;4.32;1.40;;;;;;;11.94;33.29;102629.56;5346694;26;20028;-81
2024/04/11 01:10:56;;;;;;;3.78;1.48;;;;;;;11.89;33.22;102630.81;5348116;26;20020;-80
2024/04/11 01:13:25;;;;;;;4.10;1.60;;;;;;;11.90;32.94;102619.75;5377660;26;19996;-80
2024/04/11 01:15:54;;;;;;;2.72;1.30;;;;;;;11.89;32.69;102620.72;5366396;26;20005;-82
2024/04/11 01:18:25;;;;;;;2.90;1.40;;;;;;;11.87;33.23;102614.50;5359153;26;20019;-81
2024/04/11 01:20:55;;;;;;;3.05;1.45;;;;;;;11.87;33.14;102611.75;5349951;26;20004;-81
2024/04/11 01:23:27;;;;;;;3.25;1.40;;;;;;;11.86;33.07;102603.59;5378551;26;20427;-81
2024/04/11 01:25:54;;;;;;;4.20;1.20;;;;;;;11.80;33.35;102599.38;5390561;26;20000;-81
2024/04/11 01:28:24;;;;;;;4.10;1.65;;;;;;;11.81;33.16;102600.28;5359644;26;20004;-81
2024/04/11 01:30:52;;;;;;;3.80;1.60;;;;;;;11.79;33.37;102600.41;5353231;26;20043;-82
2024/04/11 01:33:23;;;;;;;4.00;1.60;;;;;;;11.78;32.98;102604.13;5381301;26;20005;-82
2024/04/11 01:35:50;;;;;;;3.85;1.45;;;;;;;11.75;33.01;102604.31;5364801;26;20015;-83
2024/04/11 01:38:20;;;;;;;3.13;1.45;;;;;;;11.74;32.79;102602.53;5363896;26;20018;-83
2024/04/11 01:40:50;;;;;;;2.97;1.42;;;;;;;11.76;33.11;102607.94;5369898;26;20004;-83
2024/04/11 01:43:19;;;;;;;3.50;1.20;;;;;;;11.73;32.66;102600.78;5361682;26;20467;-81
2024/04/11 01:45:46;;;;;;;3.42;1.45;;;;;;;11.72;33.25;102608.13;5361584;26;20020;-82
2024/04/11 01:48:16;;;;;;;2.95;1.30;;;;;;;11.71;33.16;102600.91;5360089;26;20521;-82
2024/04/11 01:50:46;;;;;;;3.65;1.40;;;;;;;11.70;33.19;102607.34;5379378;26;20048;-83
2024/04/11 01:53:16;;;;;;;3.88;1.30;;;;;;;11.69;32.94;102611.06;5353304;26;20011;-82
2024/04/11 01:55:47;;;;;;;3.03;1.13;;;;;;;11.69;33.11;102610.19;5365144;26;20016;-81
2024/04/11 01:58:18;;;;;;;4.07;1.50;;;;;;;11.68;33.02;102612.06;5390413;26;20010;-80
2024/04/11 02:00:47;;;;;;;3.45;1.30;;;;;;;11.67;33.15;102609.41;5383605;26;20008;-82
2024/04/11 02:03:15;;;;;;;3.85;1.58;;;;;;;11.66;33.08;102611.25;5381920;26;20004;-81
2024/04/11 02:05:46;;;;;;;2.92;1.30;;;;;;;11.65;32.98;102612.25;5355309;26;20390;-83
2024/04/11 02:08:13;;;;;;;2.10;1.10;;;;;;;11.64;32.99;102613.22;5384830;26;20004;-82
2024/04/11 02:10:44;;;;;;;2.35;1.30;;;;;;;11.62;33.21;102617.06;5372077;26;20019;-83
2024/04/11 02:13:11;;;;;;;3.08;1.23;;;;;;;11.60;33.26;102616.22;5405492;26;20420;-82
2024/04/11 02:15:43;;;;;;;2.33;1.25;;;;;;;11.63;33.23;102624.31;5364985;26;20912;-82
2024/04/11 02:18:10;;;;;;;2.80;1.02;;;;;;;11.57;32.76;102614.56;5387119;26;20009;-82
2024/04/11 02:20:40;;;;;;;2.83;1.30;;;;;;;11.58;33.33;102615.44;5378109;26;20004;-82
2024/04/11 02:23:08;;;;;;;2.80;1.20;;;;;;;11.58;33.09;102619.06;5357961;26;20004;-82
2024/04/11 02:25:38;;;;;;;3.28;1.40;;;;;;;11.59;33.27;102619.94;5371465;26;20012;-83
2024/04/11 02:28:06;;;;;;;4.53;1.55;;;;;;;11.59;33.39;102618.09;5370812;26;20015;-82
2024/04/11 02:30:35;;;;;;;4.22;1.40;;;;;;;11.57;33.31;102611.81;5385524;26;20023;-82
2024/04/11 02:33:05;;;;;;;2.47;1.35;;;;;;;11.58;33.65;102615.44;5357907;26;20012;-82
2024/04/11 02:35:37;;;;;;;3.97;1.70;;;;;;;11.53;33.53;102615.75;5365845;26;20012;-82
2024/04/11 02:38:04;;;;;;;3.95;1.92;;;;;;;11.52;33.41;102621.31;5361135;26;20065;-83
2024/04/11 02:40:35;;;;;;;3.58;1.67;;;;;;;11.50;33.48;102621.41;5362751;26;20007;-82
2024/04/11 02:43:04;;;;;;;3.70;1.80;;;;;;;11.48;33.49;102611.53;5394288;26;20342;-81
2024/04/11 02:45:34;;;;;;;4.05;1.77;;;;;;;11.48;33.44;102612.41;5391385;26;20015;-83
2024/04/11 02:48:03;;;;;;;3.10;1.60;;;;;;;11.46;33.75;102613.50;5389395;26;20040;-83
2024/04/11 02:50:36;;;;;;;4.22;1.60;;;;;;;11.46;33.58;102616.25;5366639;26;20301;-82
2024/04/11 02:53:03;;;;;;;4.40;1.70;;;;;;;11.40;33.68;102613.88;5379973;26;20015;-82
2024/04/11 02:55:34;;;;;;;3.15;1.70;;;;;;;11.39;33.66;102602.03;5378447;26;20031;-82
2024/04/11 02:58:01;;;;;;;2.88;1.50;;;;;;;11.40;33.63;102605.63;5366786;26;20019;-82
2024/04/11 03:00:31;;;;;;;4.35;1.70;;;;;;;11.38;33.82;102604.88;5391366;26;20004;-82
2024/04/11 03:03:00;;;;;;;3.53;1.85;;;;;;;11.37;33.40;102614.97;5381176;26;20019;-82
2024/04/11 03:05:30;;;;;;;3.47;1.85;;;;;;;11.35;33.88;102609.56;5354924;26;20023;-82
2024/04/11 03:08:00;;;;;;;3.33;1.58;;;;;;;11.38;33.86;102613.09;5354290;26;20015;-82
2024/04/11 03:10:31;;;;;;;2.88;1.50;;;;;;;11.32;33.86;102606.13;5356692;26;20395;-82
2024/04/11 03:12:58;;;;;;;4.15;1.80;;;;;;;11.33;33.51;102607.91;5381567;26;20456;-83
2024/04/11 03:15:28;;;;;;;3.40;1.50;;;;;;;11.33;33.70;102614.25;5395154;26;20000;-82
2024/04/11 03:17:55;;;;;;;4.00;1.80;;;;;;;11.33;33.78;102607.91;5392232;26;20008;-82
2024/04/11 03:20:25;;;;;;;3.17;1.48;;;;;;;11.33;33.76;102617.00;5390832;26;20032;-83
2024/04/11 03:22:52;;;;;;;3.28;1.90;;;;;;;11.33;34.02;102614.25;5354277;26;20000;-82
2024/04/11 03:25:24;;;;;;;4.55;1.67;;;;;;;11.35;33.82;102611.44;5375363;26;20019;-81
2024/04/11 03:27:51;;;;;;;3.78;1.60;;;;;;;11.32;34.10;102620.72;5370283;26;20569;-83
2024/04/11 03:30:21;;;;;;;3.60;1.70;;;;;;;11.34;34.04;102624.25;5397249;26;20042;-83
2024/04/11 03:32:50;;;;;;;2.97;1.52;;;;;;;11.32;33.97;102623.47;5365081;26;20004;-82
2024/04/11 03:35:20;;;;;;;4.32;1.73;;;;;;;11.34;33.83;102627.00;5379035;26;20032;-82
2024/04/11 03:37:49;;;;;;;4.00;1.90;;;;;;;11.37;34.03;102625.94;5356051;26;20005;-82
2024/04/11 03:40:19;;;;;;;4.53;1.60;;;;;;;11.35;33.97;102623.28;5372284;26;20016;-80
2024/04/11 03:42:52;;;;;;;3.35;1.73;;;;;;;11.38;33.82;102613.09;5364421;26;20727;-80
2024/04/11 03:45:26;;;;;;;4.68;2.10;;;;;;;11.35;33.96;102623.28;5371414;26;20001;-81
2024/04/11 03:47:56;;;;;;;3.83;1.73;;;;;;;11.33;34.00;102617.00;5371321;26;20001;-82
2024/04/11 03:50:27;;;;;;;5.15;1.95;;;;;;;11.36;34.16;102610.47;5397714;26;20009;-82
2024/04/11 03:52:57;;;;;;;3.55;1.90;;;;;;;11.33;34.15;102605.16;5391836;26;20000;-81
2024/04/11 03:55:24;;;;;;;4.45;1.80;;;;;;;11.33;33.95;102610.63;5373293;26;20034;-81
2024/04/11 03:57:57;;;;;;;3.17;1.90;;;;;;;11.35;33.87;102603.22;5369209;26;20004;-80
2024/04/11 04:00:24;;;;;;;3.55;1.80;;;;;;;11.31;33.75;102590.66;5404729;26;20044;-83
2024/04/11 04:02:54;;;;;;;4.53;2.00;;;;;;;11.31;33.92;102594.28;5371054;26;20358;-81
2024/04/11 04:05:24;;;;;;;3.92;1.83;;;;;;;11.31;34.17;102598.88;5388710;26;20011;-81
2024/04/11 04:07:54;;;;;;;3.15;1.77;;;;;;;11.30;34.15;102594.41;5374213;26;19996;-81
2024/04/11 04:10:23;;;;;;;4.60;2.00;;;;;;;11.25;33.93;102594.69;5376515;26;20000;-82
2024/04/11 04:12:57;;;;;;;4.43;2.20;;;;;;;11.23;33.81;102584.78;5359390;26;20008;-82
2024/04/11 04:15:28;;;;;;;3.50;1.80;;;;;;;11.23;34.12;102591.16;5363816;26;20015;-82
2024/04/11 04:17:58;;;;;;;3.65;2.13;;;;;;;11.19;33.89;102591.44;5363153;26;20008;-83
2024/04/11 04:20:25;;;;;;;3.40;2.00;;;;;;;11.16;34.36;102584.28;5367938;26;20007;-83
2024/04/11 04:22:55;;;;;;;5.25;2.08;;;;;;;11.15;34.03;102587.13;5390726;26;20004;-82
2024/04/11 04:25:25;;;;;;;4.50;2.00;;;;;;;11.13;34.18;102590.00;5369876;26;20015;-81
2024/04/11 04:27:55;;;;;;;4.15;1.98;;;;;;;11.11;34.18;102599.28;5351499;26;20011;-81
2024/04/11 04:30:22;;;;;;;3.17;1.92;;;;;;;11.10;34.14;102606.59;5357164;26;20019;-82
2024/04/11 04:32:55;;;;;;;4.25;2.13;;;;;;;11.12;34.13;102609.25;5356318;26;20004;-82
2024/04/11 04:35:22;;;;;;;3.78;2.05;;;;;;;11.06;34.33;102607.75;5355229;26;20008;-83
2024/04/11 04:37:52;;;;;;;4.50;1.83;;;;;;;11.08;34.13;102599.44;5363394;26;20000;-82
2024/04/11 04:40:19;;;;;;;3.83;2.10;;;;;;;11.08;34.30;102602.19;5397931;26;20004;-83
2024/04/11 04:42:49;;;;;;;3.97;2.05;;;;;;;11.06;34.00;102587.72;5378009;26;20483;-82
2024/04/11 04:45:16;;;;;;;4.97;2.30;;;;;;;11.06;34.29;102585.00;5395277;26;20054;-82
2024/04/11 04:47:47;;;;;;;4.03;2.00;;;;;;;11.04;34.22;102578.72;5381859;26;20448;-81
2024/04/11 04:50:17;;;;;;;4.30;2.28;;;;;;;11.05;34.33;102589.59;5390075;26;20056;-81
2024/04/11 04:52:48;;;;;;;4.07;1.80;;;;;;;11.06;34.43;102587.72;5349513;26;20654;-80
2024/04/11 04:55:17;;;;;;;3.80;2.03;;;;;;;11.06;34.47;102594.06;5371598;26;20062;-81
2024/04/11 04:57:49;;;;;;;4.28;2.22;;;;;;;11.04;34.25;102589.66;5395851;26;20004;-79
2024/04/11 05:00:17;;;;;;;3.80;2.00;;;;;;;11.04;34.40;102585.06;5379481;26;20018;-82
2024/04/11 05:02:52;;;;;;;3.67;2.20;;;;;;;11.07;34.28;102589.47;5344036;26;20009;-83
2024/04/11 05:05:31;;;;;;;4.47;2.08;;;;;;;11.06;34.43;102593.22;5346674;26;20219;-83
2024/04/11 05:08:07;;;;;;;5.22;2.10;;;;;;;11.03;34.33;102586.06;5396972;26;20107;-81
2024/04/11 05:10:34;;;;;;;4.63;1.95;;;;;;;11.04;34.42;102590.56;5367817;26;20028;-83
2024/04/11 05:13:09;;;;;;;4.00;2.17;;;;;;;11.04;34.53;102585.06;5372393;26;20353;-83
2024/04/11 05:15:38;;;;;;;4.22;1.95;;;;;;;11.06;34.63;102587.72;5385708;26;20012;-83
2024/04/11 05:18:08;;;;;;;5.95;2.25;;;;;;;11.08;34.52;102594.84;5353480;26;20004;-82
2024/04/11 05:20:38;;;;;;;4.25;2.60;;;;;;;11.08;35.04;102591.22;5389536;26;20078;-82
2024/04/11 05:23:09;;;;;;;4.72;2.00;;;;;;;11.08;34.87;102591.22;5388244;26;20015;-82
2024/04/11 05:25:37;;;;;;;4.30;2.05;;;;;;;11.10;34.74;102601.13;5358175;26;20460;-83
2024/04/11 05:28:07;;;;;;;4.13;2.65;;;;;;;11.13;34.39;102598.22;5345551;26;19996;-82
2024/04/11 05:30:39;;;;;;;5.00;2.17;;;;;;;11.16;34.48;102600.72;5349295;26;20476;-81
2024/04/11 05:33:10;;;;;;;5.20;2.10;;;;;;;11.16;34.65;102600.72;5385617;26;20355;-81
2024/04/11 05:35:40;;;;;;;4.30;1.90;;;;;;;11.21;34.49;102603.22;5353401;26;20083;-79
2024/04/11 05:38:10;;;;;;;3.05;1.90;;;;;;;11.19;34.50;102596.94;5342336;26;20012;-79
2024/04/11 05:40:38;;;;;;;5.45;1.80;;;;;;;11.23;35.06;102596.63;5353748;26;20016;-81
2024/04/11 05:43:10;;;;;;;5.82;2.30;;;;;;;11.22;34.68;102583.94;5376148;26;20008;-81
2024/04/11 05:45:47;;;;;;;6.32;2.30;;;;;;;11.25;34.85;102589.19;5375960;26;20020;-79
2024/04/11 05:48:17;;;;;;;5.65;2.05;;;;;;;11.27;34.85;102583.63;5379217;26;20008;-81
2024/04/11 05:50:46;;;;;;;4.75;2.53;;;;;;;11.30;34.87;102581.59;5345616;26;20351;-80
2024/04/11 05:53:16;;;;;;;4.43;2.20;;;;;;;11.29;35.10;102588.03;5358821;26;20000;-81
2024/04/11 05:55:44;;;;;;;3.90;2.03;;;;;;;11.30;34.91;102589.81;5344477;26;20001;-80
2024/04/11 05:58:14;;;;;;;5.47;2.17;;;;;;;11.33;34.82;102588.72;5360018;26;20015;-80
2024/04/11 06:00:45;;;;;;;4.95;2.17;;;;;;;11.35;34.88;102594.97;5352678;26;20083;-80
2024/04/11 06:03:14;;;;;;;4.75;2.17;;;;;;;11.37;34.96;102590.28;5346476;26;20000;-81
2024/04/11 06:05:47;;;;;;;5.15;2.13;;;;;;;11.40;34.99;102597.41;5348603;26;20065;-82
2024/04/11 06:08:17;;;;;;;4.70;2.10;;;;;;;11.40;34.79;102598.31;5351208;26;20000;-82
2024/04/11 06:10:44;;;;;;;4.28;2.00;;;;;;;11.43;35.08;102597.22;5390802;26;20004;-80
2024/04/11 06:13:14;;;;;;;2.90;1.80;;;;;;;11.44;35.10;102604.47;5353592;26;20019;-81
2024/04/11 06:15:42;;;;;;;3.60;1.92;;;;;;;11.45;35.09;102607.13;5355652;26;20001;-81
2024/04/11 06:18:12;;;;;;;3.67;1.92;;;;;;;11.46;34.87;102610.75;5356773;26;20478;-82
2024/04/11 06:20:43;;;;;;;4.00;1.92;;;;;;;11.50;35.06;102612.31;5374223;26;20004;-81
2024/04/11 06:23:19;;;;;;;3.22;1.70;;;;;;;11.53;34.87;102620.34;5365502;26;20003;-81
2024/04/11 06:25:47;;;;;;;5.88;1.92;;;;;;;11.52;34.59;102622.22;5358422;26;20019;-80
2024/04/11 06:28:18;;;;;;;3.88;1.98;;;;;;;11.52;34.78;102614.00;5397259;26;20049;-80
2024/04/11 06:30:46;;;;;;;3.55;1.80;;;;;;;11.54;34.75;102616.63;5388024;26;20016;-80
2024/04/11 06:33:16;;;;;;;6.40;2.10;;;;;;;11.55;34.71;102630.25;5361062;26;20015;-81
2024/04/11 06:35:46;;;;;;;4.53;1.80;;;;;;;11.60;35.08;102627.19;5342836;26;20071;-80
2024/04/11 06:38:20;;;;;;;3.97;2.20;;;;;;;11.60;34.63;102636.31;5367969;26;20003;-80
2024/04/11 06:40:48;;;;;;;3.80;1.60;;;;;;;11.61;34.96;102642.72;5351345;26;20012;-80
2024/04/11 06:43:19;;;;;;;4.07;1.73;;;;;;;11.62;35.00;102644.47;5385780;26;20000;-80
2024/04/11 06:45:46;;;;;;;4.78;2.00;;;;;;;11.63;35.01;102647.13;5372741;26;20004;-80
2024/04/11 06:48:18;;;;;;;4.25;1.60;;;;;;;11.65;35.00;102644.25;5386825;26;20012;-80
2024/04/11 06:50:46;;;;;;;3.60;1.55;;;;;;;11.64;34.84;102634.28;5382945;26;20491;-81
2024/04/11 06:53:20;;;;;;;3.65;1.40;;;;;;;11.69;35.04;102646.72;5359757;26;20055;-79
2024/04/11 06:55:47;;;;;;;3.15;1.70;;;;;;;11.70;34.68;102653.09;5374542;26;20028;-79
2024/04/11 06:58:22;;;;;;;3.90;1.60;;;;;;;11.70;34.86;102656.72;5379486;26;20008;-78
2024/04/11 07:00:58;;;;;;;3.83;1.50;;;;;;;11.75;34.62;102656.41;5380631;26;20008;-79
2024/04/11 07:03:30;;;;;;;4.53;1.90;;;;;;;11.74;34.98;102663.75;5360744;26;20014;-80
2024/04/11 07:05:59;;;;;;;4.25;1.70;;;;;;;11.77;34.76;102667.31;5363462;26;20009;-80
2024/04/11 07:08:34;;;;;;;4.15;1.60;;;;;;;11.78;35.04;102666.31;5351050;26;20322;-80
2024/04/11 07:11:18;;;;;;;3.47;1.50;;;;;;;11.79;34.93;102677.19;5356867;26;20340;-80
2024/04/11 07:13:57;;;;;;;5.03;1.45;;;;;;;11.80;34.84;102680.84;5392347;26;20023;-80
2024/04/11 07:16:26;;;;;;;3.90;1.52;;;;;;;11.80;35.16;102683.56;5383143;26;20019;-80
2024/04/11 07:18:57;;;;;;;4.03;1.50;;;;;;;11.83;34.87;102684.25;5386948;26;20016;-80
2024/04/11 07:21:26;;;;;;;3.45;1.20;;;;;;;11.84;34.74;102686.00;5378780;26;20077;-80
2024/04/11 07:24:00;;;;;;;4.35;1.50;;;;;;;11.90;34.96;102688.34;5376332;26;20028;-80
2024/04/11 07:26:29;;;;;;;4.45;1.45;;;;;;;11.89;34.99;102693.94;5352945;26;20044;-80
2024/04/11 07:28:59;;;;;;;4.28;1.60;;;;;;;11.90;34.57;102693.84;5382598;26;20008;-80
2024/04/11 07:31:28;;;;;;;3.95;1.48;;;;;;;11.90;35.08;102693.84;5346816;26;20004;-79
2024/04/11 07:33:59;;;;;;;3.92;1.65;;;;;;;11.93;34.73;102693.66;5373726;26;20078;-80
2024/04/11 07:36:26;;;;;;;5.53;1.60;;;;;;;11.94;34.96;102692.66;5351827;26;20008;-79
2024/04/11 07:38:59;;;;;;;4.22;1.50;;;;;;;11.98;34.77;102680.50;5380111;26;20008;-80
2024/04/11 07:41:28;;;;;;;4.00;1.50;;;;;;;11.97;35.01;102681.47;5379469;26;20015;-80
2024/04/11 07:43:59;;;;;;;4.80;1.70;;;;;;;11.99;34.65;102693.25;5380822;26;20305;-80
2024/04/11 07:46:28;;;;;;;4.03;1.60;;;;;;;11.96;35.28;102687.09;5352308;26;20020;-79
2024/04/11 07:49:07;;;;;;;4.65;1.77;;;;;;;11.99;34.72;102687.75;5385151;26;20235;-80
2024/04/11 07:51:35;;;;;;;4.28;1.60;;;;;;;12.01;34.86;102694.03;5390348;26;20019;-81
2024/04/11 07:54:13;;;;;;;4.72;2.03;;;;;;;12.04;34.82;102684.72;5360758;26;20003;-80
2024/04/11 07:56:51;;;;;;;4.13;1.50;;;;;;;12.03;34.94;102686.59;5357560;26;20040;-80
2024/04/11 07:59:22;;;;;;;3.47;1.55;;;;;;;12.06;35.14;102682.75;5390410;26;20007;-80
2024/04/11 08:01:49;;;;;;;4.72;1.85;;;;;;;12.07;35.33;102682.66;5341030;26;20480;-80
2024/04/11 08:04:18;;;;;;;4.43;1.60;;;;;;;12.10;35.25;102682.47;5399559;26;20073;-80
2024/04/11 08:06:46;;;;;;;3.85;1.60;;;;;;;12.13;35.00;102691.50;5363004;26;20008;-80
2024/04/11 08:09:18;;;;;;;3.58;1.20;;;;;;;12.18;34.95;102695.69;5355003;26;20015;-80
2024/04/11 08:11:45;;;;;;;2.67;1.40;;;;;;;12.16;35.11;102697.63;5376629;26;20004;-80
2024/04/11 08:14:15;;;;;;;3.17;1.30;;;;;;;12.22;34.73;102705.47;5347652;26;20016;-81
2024/04/11 08:16:42;;;;;;;3.47;1.58;;;;;;;12.24;34.87;102703.50;5354011;26;20004;-80
2024/04/11 08:19:12;;;;;;;3.55;1.33;;;;;;;12.28;34.94;102701.47;5376370;26;20016;-80
2024/04/11 08:21:41;;;;;;;3.75;1.30;;;;;;;12.31;34.99;102706.72;5363777;26;20027;-80
2024/04/11 08:24:11;;;;;;;4.07;1.50;;;;;;;12.32;35.21;102709.38;5350315;26;20469;-80
2024/04/11 08:26:42;;;;;;;3.42;1.40;;;;;;;12.39;35.33;102709.84;5350765;26;20013;-80
2024/04/11 08:29:12;;;;;;;4.63;1.50;;;;;;;12.40;34.96;102709.75;5368395;26;20046;-80
2024/04/11 08:31:39;;;;;;;3.72;1.45;;;;;;;12.44;34.91;102708.59;5399666;26;20008;-81
2024/04/11 08:34:12;;;;;;;2.88;1.20;;;;;;;12.48;35.04;102706.50;5396660;26;20518;-80
2024/04/11 08:36:39;;;;;;;3.60;1.23;;;;;;;12.48;35.38;102712.88;5343753;26;20008;-81
2024/04/11 08:39:09;;;;;;;2.70;1.30;;;;;;;12.55;35.26;102710.59;5379009;26;20012;-81
2024/04/11 08:41:36;;;;;;;6.10;1.50;;;;;;;12.60;34.92;102713.03;5353131;26;20015;-80
2024/04/11 08:44:11;;;;;;;2.85;1.20;;;;;;;12.64;35.42;102711.88;5376288;26;20181;-81
2024/04/11 08:46:43;;;;;;;3.47;1.55;;;;;;;12.67;35.06;102726.31;5372233;26;20028;-81
2024/04/11 08:49:13;;;;;;;3.63;1.27;;;;;;;12.70;35.24;102723.34;5393056;26;20004;-81
2024/04/11 08:51:43;;;;;;;4.63;1.67;;;;;;;12.77;35.06;102723.81;5383891;26;20387;-81
2024/04/11 08:54:16;;;;;;;4.03;1.30;;;;;;;12.80;35.16;102729.97;5371411;26;20008;-82
2024/04/11 08:56:43;;;;;;;3.22;1.40;;;;;;;12.82;35.09;102732.63;5371198;26;20008;-80
2024/04/11 08:59:17;;;;;;;4.18;1.35;;;;;;;12.90;35.13;102735.72;5362485;26;20012;-81
2024/04/11 09:01:44;;;;;;;4.90;1.50;;;;;;;12.93;35.07;102741.03;5368878;26;20478;-81
2024/04/11 09:04:14;;;;;;;3.45;1.40;;;;;;;12.96;35.19;102735.31;5362222;26;20004;-80
2024/04/11 09:06:42;;;;;;;2.72;1.17;;;;;;;13.01;35.20;102733.16;5359916;26;20419;-81
2024/04/11 09:09:16;;;;;;;3.25;1.50;;;;;;;13.06;35.37;102743.81;5379855;26;20018;-80
2024/04/11 09:11:44;;;;;;;4.88;1.45;;;;;;;13.10;35.32;102737.13;5363482;26;20440;-80
2024/04/11 09:14:17;;;;;;;4.53;1.38;;;;;;;13.18;35.33;102743.88;5383142;26;20008;-80
2024/04/11 09:16:44;;;;;;;3.08;1.60;;;;;;;13.20;35.24;102743.78;5363894;26;20471;-80
2024/04/11 09:19:16;;;;;;;3.45;1.35;;;;;;;13.25;34.95;102741.56;5360559;26;20341;-80
2024/04/11 09:21:44;;;;;;;4.60;1.75;;;;;;;13.31;35.20;102751.25;5359087;26;20005;-81
2024/04/11 09:24:17;;;;;;;3.90;1.60;;;;;;;13.38;35.03;102758.09;5353538;26;20019;-81
2024/04/11 09:26:46;;;;;;;3.25;1.60;;;;;;;13.42;34.95;102763.28;5372592;26;20003;-80
2024/04/11 09:29:19;;;;;;;3.22;1.50;;;;;;;13.49;34.96;102758.22;5361011;26;20472;-81
2024/04/11 09:31:56;;;;;;;9.27;1.88;;;;;;;13.55;34.90;102764.19;5388798;26;20001;-81
2024/04/11 09:34:32;;;;;;;2.92;1.38;;;;;;;13.58;35.21;102775.00;5363329;26;20048;-82
2024/04/11 09:36:59;;;;;;;3.55;1.58;;;;;;;13.62;35.13;102775.66;5358938;26;20004;-81
2024/04/11 09:39:45;;;;;;;3.75;1.60;;;;;;;13.69;35.27;102776.13;5388648;26;20004;-81
2024/04/11 09:42:19;;;;;;;3.53;1.20;;;;;;;13.71;35.20;102775.00;5341139;26;20301;-81
2024/04/11 09:44:52;;;;;;;2.72;1.08;;;;;;;13.78;35.13;102770.81;5359269;26;20015;-80
2024/04/11 09:47:28;;;;;;;4.45;1.50;;;;;;;13.80;35.01;102765.22;5358542;26;20000;-81
2024/04/11 09:49:59;;;;;;;3.90;1.95;;;;;;;13.84;35.03;102769.53;5359150;26;20054;-81
2024/04/11 09:52:34;;;;;;;2.97;1.13;;;;;;;13.89;34.93;102764.56;5395989;26;20004;-81
2024/04/11 09:55:03;;;;;;;3.45;1.13;;;;;;;13.91;35.17;102757.09;5369479;26;20008;-82
2024/04/11 09:57:36;;;;;;;3.00;1.30;;;;;;;13.96;35.31;102754.88;5385957;26;20015;-81
2024/04/11 10:00:08;;;;;;;3.13;1.38;;;;;;;13.99;35.26;102757.41;5360040;26;20004;-81
2024/04/11 10:02:40;;;;;;;2.40;1.10;;;;;;;14.00;35.13;102756.44;5397333;26;20022;-82
2024/04/11 10:05:09;;;;;;;2.60;1.10;;;;;;;14.04;35.24;102757.94;5382192;26;20005;-81
2024/04/11 10:07:41;;;;;;;3.42;1.10;;;;;;;14.08;34.86;102762.25;5386027;26;20000;-81
2024/04/11 10:10:18;;;;;;;;;;;;;;;13.82;35.83;102763.25;5372290;26;20022;-81
2024/04/11 10:12:48;;;;;;;3.80;1.15;;;;;;;14.09;35.11;102769.53;5377849;26;19925;-80
2024/04/11 10:15:21;;;;;;;1.92;0.95;;;;;;;14.16;35.64;102770.84;5362687;26;20034;-80
2024/04/11 10:18:06;;;;;;;3.85;0.98;;;;;;;14.19;35.25;102759.59;5358623;26;20023;-80
2024/04/11 10:20:42;;;;;;;3.15;1.10;;;;;;;14.22;35.59;102767.63;5363666;26;20004;-80
2024/04/11 10:23:15;;;;;;;3.75;1.30;;;;;;;14.22;35.63;102764.88;5358463;26;20020;-80
2024/04/11 10:25:49;;;;;;;2.67;1.00;;;;;;;14.27;35.76;102759.91;5368767;26;20457;-81
2024/04/11 10:28:19;;;;;;;5.57;1.80;;;;;;;14.28;35.54;102761.66;5363444;26;20622;-81
2024/04/11 10:30:51;;;;;;;2.67;1.10;;;;;;;14.35;35.62;102770.38;5362590;26;20017;-81
2024/04/11 10:33:29;;;;;;;2.38;1.10;;;;;;;14.39;35.51;102761.78;5395808;26;20008;-81
2024/04/11 10:35:57;;;;;;;2.13;0.95;;;;;;;14.39;35.54;102761.78;5375531;26;20008;-81
2024/04/11 10:38:29;;;;;;;4.05;1.10;;;;;;;14.45;35.60;102765.06;5366157;26;20040;-81
2024/04/11 10:40:56;;;;;;;2.83;1.00;;;;;;;14.48;35.54;102765.75;5363594;26;20059;-82
2024/04/11 10:43:27;;;;;;;2.95;1.17;;;;;;;14.52;35.54;102778.28;5359807;26;20054;-81
2024/04/11 10:45:57;;;;;;;3.45;1.40;;;;;;;14.58;35.52;102771.47;5349722;26;20005;-80
2024/04/11 10:48:31;;;;;;;2.15;0.90;;;;;;;14.59;35.62;102776.00;5355740;26;20004;-81
2024/04/11 10:51:00;;;;;;;2.97;1.38;;;;;;;14.62;35.85;102778.50;5371362;26;20011;-82
2024/04/11 10:53:33;;;;;;;1.95;0.90;;;;;;;14.65;35.69;102783.78;5359674;26;20015;-81
2024/04/11 10:56:20;;;;;;;4.40;1.00;;;;;;;14.69;35.64;102779.78;5370155;26;20419;-82
2024/04/11 10:58:50;;;;;;;3.22;1.20;;;;;;;14.69;35.72;102791.69;5385693;26;20001;-81
2024/04/11 11:01:26;;;;;;;3.40;1.00;;;;;;;14.74;35.91;102784.00;5385124;26;20016;-81
2024/04/11 11:03:58;;;;;;;3.78;1.17;;;;;;;14.75;35.79;102783.00;5320294;26;20020;-80
2024/04/11 11:06:25;;;;;;;5.77;1.30;;;;;;;14.77;36.01;102793.88;5352905;26;20074;-81
2024/04/11 11:09:10;;;;;;;3.60;1.10;;;;;;;14.81;35.78;102797.31;5368223;26;20004;-81
2024/04/11 11:11:41;;;;;;;4.07;1.13;;;;;;;14.82;36.01;102805.47;5379380;26;20020;-83
2024/04/11 11:14:14;;;;;;;2.53;0.90;;;;;;;14.83;36.02;102798.97;5348863;26;20082;-81
2024/04/11 11:16:44;;;;;;;3.28;1.20;;;;;;;14.87;36.41;102802.34;5384082;26;20004;-83
2024/04/11 11:19:15;;;;;;;3.50;1.00;;;;;;;14.88;36.13;102809.63;5388624;26;20028;-81
2024/04/11 11:21:50;;;;;;;3.47;1.20;;;;;;;14.91;36.60;102802.03;5352317;26;20078;-82
2024/04/11 11:24:23;;;;;;;1.42;0.85;;;;;;;14.88;36.55;102801.34;5380790;26;20008;-82
2024/04/11 11:26:55;;;;;;;2.97;0.95;;;;;;;14.91;36.93;102810.28;5354736;26;20015;-81
2024/04/11 11:29:27;;;;;;;3.30;0.95;;;;;;;14.94;36.77;102811.91;5381053;26;20767;-82
2024/04/11 11:32:01;;;;;;;;;;;;;;;14.65;37.28;102815.00;5366050;26;20464;-82
2024/04/11 11:34:35;;;;;;;3.10;0.88;;;;;;;14.90;37.05;102803.00;5345566;26;19968;-81
2024/04/11 11:37:03;;;;;;;2.72;0.98;;;;;;;14.94;37.16;102810.03;5348675;26;20019;-81
2024/04/11 11:39:36;;;;;;;3.40;1.15;;;;;;;14.97;37.13;102807.06;5368794;26;20005;-79
2024/04/11 11:42:08;;;;;;;2.58;1.00;;;;;;;14.98;37.14;102810.69;5356647;26;20338;-82